Time;durP1;ratioP1;P1;durP2;ratioP2;P2;SDS_P1;SDS_P2;PMS_P1;PMS_P2;Temp;Humidity;BMP_temperature;BMP_pressure;BME280_temperature;BME280_humidity;BME280_pressure;Samples;Min_cycle;Max_cycle;Signal;HPM_P1;HPM_P2
2022/01/17 00:00:19;;;;;;;11.73;2.50;;;;;;;;;;5057569;28;20059;-67
2022/01/17 00:02:49;;;;;;;14.52;2.28;;;;;;;;;;5060978;28;20517;-67
2022/01/17 00:05:16;;;;;;;12.70;2.50;;;;;;;;;;5053377;28;20060;-67
2022/01/17 00:07:42;;;;;;;9.43;1.75;;;;;;;;;;5053627;28;20050;-67
2022/01/17 00:10:09;;;;;;;9.15;2.47;;;;;;;;;;5053646;28;20497;-67
2022/01/17 00:12:39;;;;;;;13.55;2.53;;;;;;;;;;5050176;28;20056;-67
2022/01/17 00:15:15;;;;;;;11.27;2.35;;;;;;;;;;5052396;28;20050;-67
2022/01/17 00:17:44;;;;;;;13.68;2.40;;;;;;;;;;5051729;28;20041;-66
2022/01/17 00:20:14;;;;;;;10.13;1.67;;;;;;;;;;5053020;28;20059;-66
2022/01/17 00:22:40;;;;;;;11.27;2.00;;;;;;;;;;5053853;28;20063;-67
2022/01/17 00:25:07;;;;;;;18.40;3.55;;;;;;;;;;5053033;28;20052;-66
2022/01/17 00:27:33;;;;;;;13.07;1.65;;;;;;;;;;5053773;28;20340;-67
2022/01/17 00:30:02;;;;;;;11.05;3.88;;;;;;;;;;5054311;28;20064;-67
2022/01/17 00:32:29;;;;;;;9.77;1.95;;;;;;;;;;5053420;28;20053;-67
2022/01/17 00:34:56;;;;;;;11.95;2.45;;;;;;;;;;5053202;28;20053;-67
2022/01/17 00:37:22;;;;;;;12.38;2.25;;;;;;;;;;5053646;28;20069;-68
2022/01/17 00:39:49;;;;;;;9.80;2.20;;;;;;;;;;5052064;28;20057;-67
2022/01/17 00:42:15;;;;;;;8.93;2.28;;;;;;;;;;5053118;28;20049;-67
2022/01/17 00:44:42;;;;;;;8.55;1.70;;;;;;;;;;5053304;28;20461;-67
2022/01/17 00:47:08;;;;;;;12.93;2.42;;;;;;;;;;5053011;28;20060;-66
2022/01/17 00:49:34;;;;;;;16.63;3.08;;;;;;;;;;5052473;28;20054;-66
2022/01/17 00:52:01;;;;;;;12.20;2.63;;;;;;;;;;5052711;28;20054;-67
2022/01/17 00:54:28;;;;;;;19.60;4.45;;;;;;;;;;5053553;28;20528;-67
2022/01/17 00:56:54;;;;;;;14.00;2.08;;;;;;;;;;5047295;28;20064;-66
2022/01/17 00:59:20;;;;;;;11.02;2.60;;;;;;;;;;5053523;28;20056;-67
2022/01/17 01:01:46;;;;;;;11.15;2.30;;;;;;;;;;5052904;28;20053;-67
2022/01/17 01:04:13;;;;;;;11.85;2.40;;;;;;;;;;5053203;28;20050;-66
2022/01/17 01:06:39;;;;;;;12.10;1.95;;;;;;;;;;5058052;28;20060;-67
2022/01/17 01:09:06;;;;;;;8.32;1.67;;;;;;;;;;5053114;28;20053;-67
2022/01/17 01:11:32;;;;;;;12.77;3.22;;;;;;;;;;5053160;28;20125;-67
2022/01/17 01:14:02;;;;;;;9.77;2.10;;;;;;;;;;5052030;28;20129;-67
2022/01/17 01:16:35;;;;;;;19.05;2.85;;;;;;;;;;5053037;28;20064;-67
2022/01/17 01:29:32;;;;;;;10.75;2.20;;;;;;;;;;5051379;28;20056;-66
2022/01/17 01:32:03;;;;;;;12.68;2.70;;;;;;;;;;5050698;28;20508;-67
2022/01/17 01:34:37;;;;;;;9.57;2.17;;;;;;;;;;5051165;28;20087;-67
2022/01/17 01:37:04;;;;;;;9.20;2.10;;;;;;;;;;5051460;28;20049;-66
2022/01/17 01:39:30;;;;;;;16.73;3.05;;;;;;;;;;5050615;28;20045;-68
2022/01/17 01:41:57;;;;;;;13.73;2.15;;;;;;;;;;5052007;28;20493;-66
2022/01/17 01:44:24;;;;;;;11.85;1.75;;;;;;;;;;5051181;28;20511;-66
2022/01/17 01:46:51;;;;;;;9.60;2.03;;;;;;;;;;5051021;28;20053;-67
2022/01/17 01:49:18;;;;;;;12.65;1.88;;;;;;;;;;5051132;28;20060;-67
2022/01/17 01:51:45;;;;;;;15.40;2.00;;;;;;;;;;5051923;28;20596;-68
2022/01/17 01:54:11;;;;;;;8.82;1.67;;;;;;;;;;5049534;28;20063;-67
2022/01/17 01:56:39;;;;;;;18.20;2.40;;;;;;;;;;5050617;28;20054;-68
2022/01/17 01:59:06;;;;;;;12.63;2.60;;;;;;;;;;5050801;28;20468;-66
2022/01/17 02:01:32;;;;;;;11.27;1.98;;;;;;;;;;5050225;28;20065;-66
2022/01/17 02:04:00;;;;;;;11.05;2.20;;;;;;;;;;5050694;28;20099;-67
2022/01/17 02:06:26;;;;;;;13.48;2.15;;;;;;;;;;5051838;28;20060;-67
2022/01/17 02:08:52;;;;;;;11.45;2.42;;;;;;;;;;5069069;28;20152;-67
2022/01/17 02:11:18;;;;;;;12.23;2.20;;;;;;;;;;5071017;28;20060;-67
2022/01/17 02:13:46;;;;;;;18.15;2.63;;;;;;;;;;5058085;28;20064;-67
2022/01/17 02:16:16;;;;;;;7.05;1.90;;;;;;;;;;5052449;28;20055;-67
2022/01/17 02:18:43;;;;;;;12.98;2.30;;;;;;;;;;5058217;28;20103;-67
2022/01/17 02:21:18;;;;;;;16.60;2.20;;;;;;;;;;5052603;28;20046;-67
2022/01/17 02:23:45;;;;;;;14.90;2.22;;;;;;;;;;5052432;28;20124;-67
2022/01/17 02:26:12;;;;;;;21.67;2.17;;;;;;;;;;5052462;28;20056;-67
2022/01/17 02:28:43;;;;;;;11.75;1.65;;;;;;;;;;5051872;28;20054;-67
2022/01/17 02:31:10;;;;;;;12.45;2.33;;;;;;;;;;5052230;28;20085;-67
2022/01/17 02:33:36;;;;;;;18.25;2.28;;;;;;;;;;5052162;28;20132;-68
2022/01/17 02:36:02;;;;;;;20.90;2.60;;;;;;;;;;5053438;28;20057;-67
2022/01/17 02:38:29;;;;;;;11.15;1.95;;;;;;;;;;5052066;28;20056;-67
2022/01/17 02:40:56;;;;;;;13.80;2.47;;;;;;;;;;5051873;28;20064;-67
2022/01/17 02:43:24;;;;;;;12.32;2.20;;;;;;;;;;5052472;28;20593;-67
2022/01/17 02:48:20;;;;;;;10.00;3.22;;;;;;;;;;5052048;28;20066;-66
2022/01/17 02:50:46;;;;;;;14.05;1.92;;;;;;;;;;5051463;28;20500;-67
2022/01/17 02:53:13;;;;;;;11.52;2.95;;;;;;;;;;5051721;28;20054;-67
2022/01/17 02:55:46;;;;;;;14.75;2.00;;;;;;;;;;5052654;28;20053;-67
2022/01/17 02:58:12;;;;;;;17.88;3.78;;;;;;;;;;5051680;28;20053;-67
2022/01/17 03:00:39;;;;;;;5.63;1.60;;;;;;;;;;5051684;28;20064;-67
2022/01/17 03:03:09;;;;;;;17.58;2.92;;;;;;;;;;5053199;28;20149;-66
2022/01/17 03:05:35;;;;;;;13.82;3.50;;;;;;;;;;5055337;28;20513;-67
2022/01/17 03:08:03;;;;;;;11.55;1.75;;;;;;;;;;5054231;28;20053;-67
2022/01/17 03:10:43;;;;;;;13.52;1.80;;;;;;;;;;5054933;28;20085;-67
2022/01/17 03:13:13;;;;;;;16.63;3.20;;;;;;;;;;5055234;28;20084;-67
2022/01/17 03:15:40;;;;;;;10.10;1.80;;;;;;;;;;5055105;28;20057;-67
2022/01/17 03:18:07;;;;;;;10.27;2.30;;;;;;;;;;5054301;28;20057;-67
2022/01/17 03:20:37;;;;;;;7.80;1.92;;;;;;;;;;5054169;28;20053;-67
2022/01/17 03:23:04;;;;;;;19.05;2.60;;;;;;;;;;5055461;28;20053;-67
2022/01/17 03:25:30;;;;;;;9.98;2.05;;;;;;;;;;5054496;28;20053;-67
2022/01/17 03:27:57;;;;;;;13.30;2.38;;;;;;;;;;5054509;28;20063;-67
2022/01/17 03:30:23;;;;;;;11.52;2.28;;;;;;;;;;5060089;28;20064;-67
2022/01/17 03:32:50;;;;;;;13.07;2.70;;;;;;;;;;5070838;28;20438;-67
2022/01/17 03:35:16;;;;;;;11.25;2.22;;;;;;;;;;5054707;28;20066;-66
2022/01/17 03:37:44;;;;;;;11.93;2.38;;;;;;;;;;5054626;28;20060;-67
2022/01/17 03:40:11;;;;;;;16.55;2.88;;;;;;;;;;5053933;28;20054;-67
2022/01/17 03:42:38;;;;;;;7.13;1.77;;;;;;;;;;5054162;28;20080;-67
2022/01/17 03:45:07;;;;;;;11.57;1.90;;;;;;;;;;5060195;28;20056;-67
2022/01/17 03:47:37;;;;;;;10.57;1.58;;;;;;;;;;5054675;28;20053;-67
2022/01/17 03:50:06;;;;;;;9.88;1.80;;;;;;;;;;5054316;28;20057;-67
2022/01/17 03:52:33;;;;;;;14.63;2.15;;;;;;;;;;5053983;28;20073;-67
2022/01/17 03:54:59;;;;;;;11.88;2.13;;;;;;;;;;5048656;28;20053;-67
2022/01/17 03:57:25;;;;;;;12.20;2.00;;;;;;;;;;5054139;28;20426;-67
2022/01/17 03:59:52;;;;;;;16.67;2.25;;;;;;;;;;5054529;28;20053;-67
2022/01/17 04:02:18;;;;;;;11.30;2.30;;;;;;;;;;5053723;28;20428;-67
2022/01/17 04:04:45;;;;;;;11.57;2.08;;;;;;;;;;5054007;28;20085;-67
2022/01/17 04:07:11;;;;;;;11.88;2.47;;;;;;;;;;5053792;28;20061;-67
2022/01/17 04:09:37;;;;;;;10.90;2.05;;;;;;;;;;5054375;28;20053;-67
2022/01/17 04:12:04;;;;;;;12.57;1.88;;;;;;;;;;5053818;28;20049;-67
2022/01/17 04:14:34;;;;;;;10.43;1.90;;;;;;;;;;5053241;28;20053;-68
2022/01/17 04:17:01;;;;;;;8.65;1.75;;;;;;;;;;5052072;28;20053;-69
2022/01/17 04:19:28;;;;;;;11.38;2.00;;;;;;;;;;5053573;28;20593;-66
2022/01/17 04:21:54;;;;;;;12.90;1.80;;;;;;;;;;5053962;28;20497;-67
2022/01/17 04:24:20;;;;;;;15.80;2.33;;;;;;;;;;5053811;28;20084;-67
2022/01/17 04:26:47;;;;;;;15.27;2.55;;;;;;;;;;5053152;28;20058;-66
2022/01/17 04:29:13;;;;;;;10.95;2.20;;;;;;;;;;5053763;28;20103;-66
2022/01/17 04:31:39;;;;;;;13.02;2.33;;;;;;;;;;5052417;28;20057;-67
2022/01/17 04:34:05;;;;;;;12.80;3.33;;;;;;;;;;5053835;28;20058;-67
2022/01/17 04:36:32;;;;;;;12.52;2.75;;;;;;;;;;5054241;28;20054;-66
2022/01/17 04:38:58;;;;;;;17.52;2.10;;;;;;;;;;5052004;28;20057;-66
2022/01/17 04:41:36;;;;;;;12.75;2.42;;;;;;;;;;5048674;28;20582;-67
2022/01/17 04:46:47;;;;;;;18.88;2.70;;;;;;;;;;5053735;28;20060;-67
2022/01/17 04:49:13;;;;;;;12.75;2.97;;;;;;;;;;5053286;28;20065;-67
2022/01/17 04:51:40;;;;;;;17.42;4.20;;;;;;;;;;5053353;28;20060;-67
2022/01/17 04:56:50;;;;;;;13.45;2.20;;;;;;;;;;5052258;28;20053;-66
2022/01/17 04:59:17;;;;;;;11.27;2.33;;;;;;;;;;5053066;28;20046;-67
2022/01/17 05:01:43;;;;;;;12.18;2.88;;;;;;;;;;5053159;28;20072;-67
2022/01/17 05:04:09;;;;;;;17.80;2.55;;;;;;;;;;5053108;28;20605;-68
2022/01/17 05:06:35;;;;;;;13.15;2.35;;;;;;;;;;5053098;28;20531;-67
2022/01/17 05:09:03;;;;;;;9.95;3.15;;;;;;;;;;5053514;28;20057;-67
2022/01/17 05:11:30;;;;;;;21.50;5.22;;;;;;;;;;5042014;28;20050;-67
2022/01/17 05:13:57;;;;;;;16.45;2.70;;;;;;;;;;5041919;28;20129;-67
2022/01/17 05:16:32;;;;;;;16.55;2.72;;;;;;;;;;5053199;28;20049;-67
2022/01/17 05:21:43;;;;;;;23.83;3.67;;;;;;;;;;5052745;28;20127;-67
2022/01/17 05:24:10;;;;;;;16.70;4.60;;;;;;;;;;5053273;28;20060;-67
2022/01/17 05:26:41;;;;;;;18.45;3.33;;;;;;;;;;5052833;28;20057;-67
2022/01/17 05:29:07;;;;;;;13.30;3.03;;;;;;;;;;5058799;28;20049;-66
2022/01/17 05:31:34;;;;;;;13.15;3.13;;;;;;;;;;5052392;28;20056;-67
2022/01/17 05:34:00;;;;;;;17.27;3.75;;;;;;;;;;5053407;28;20084;-67
2022/01/17 05:36:26;;;;;;;11.90;3.08;;;;;;;;;;5052496;28;20053;-67
2022/01/17 05:38:52;;;;;;;24.38;3.67;;;;;;;;;;5052928;28;20054;-66
2022/01/17 05:41:19;;;;;;;17.27;3.42;;;;;;;;;;5052904;28;20053;-67
2022/01/17 05:43:46;;;;;;;20.83;4.15;;;;;;;;;;5051574;28;20067;-67
2022/01/17 05:46:12;;;;;;;15.23;4.05;;;;;;;;;;5052583;28;20061;-67
2022/01/17 05:48:38;;;;;;;16.65;3.90;;;;;;;;;;5052429;28;20064;-66
2022/01/17 05:51:05;;;;;;;17.65;4.68;;;;;;;;;;5050406;28;20050;-66
2022/01/17 05:53:31;;;;;;;16.58;4.38;;;;;;;;;;5049993;28;20084;-66
2022/01/17 05:55:58;;;;;;;20.85;4.15;;;;;;;;;;5050771;28;20080;-66
2022/01/17 05:58:25;;;;;;;12.25;3.63;;;;;;;;;;5051345;28;20049;-66
2022/01/17 06:00:52;;;;;;;27.05;4.75;;;;;;;;;;5051233;28;20060;-67
2022/01/17 06:03:18;;;;;;;18.83;4.43;;;;;;;;;;5052426;28;20060;-67
2022/01/17 06:05:45;;;;;;;12.73;3.78;;;;;;;;;;5052830;28;20072;-66
2022/01/17 06:08:11;;;;;;;24.63;6.72;;;;;;;;;;5052393;28;20127;-67
2022/01/17 06:10:38;;;;;;;22.75;4.85;;;;;;;;;;5052213;28;20050;-67
2022/01/17 06:13:04;;;;;;;17.80;4.57;;;;;;;;;;5052380;28;20058;-67
2022/01/17 06:15:30;;;;;;;24.05;4.63;;;;;;;;;;5052192;28;20056;-67
2022/01/17 06:17:57;;;;;;;28.48;5.28;;;;;;;;;;5051955;28;20050;-66
2022/01/17 06:20:23;;;;;;;16.65;4.95;;;;;;;;;;5050190;28;20064;-67
2022/01/17 06:22:49;;;;;;;20.02;4.97;;;;;;;;;;5051986;28;20501;-67
2022/01/17 06:25:16;;;;;;;21.58;5.72;;;;;;;;;;5052414;28;20500;-67
2022/01/17 06:27:42;;;;;;;22.67;5.72;;;;;;;;;;5051969;28;20059;-67
2022/01/17 06:30:09;;;;;;;27.45;6.45;;;;;;;;;;5050564;28;20144;-67
2022/01/17 06:32:35;;;;;;;22.00;7.00;;;;;;;;;;5051712;28;20057;-66
2022/01/17 06:35:05;;;;;;;36.22;8.68;;;;;;;;;;5052024;28;20064;-66
2022/01/17 06:37:32;;;;;;;22.98;8.23;;;;;;;;;;5052245;28;20046;-66
2022/01/17 06:39:58;;;;;;;23.73;8.23;;;;;;;;;;5054686;28;20055;-66
2022/01/17 06:42:24;;;;;;;25.05;7.78;;;;;;;;;;5050773;28;20060;-66
2022/01/17 06:44:51;;;;;;;23.48;8.43;;;;;;;;;;5057979;28;20050;-66
2022/01/17 06:47:18;;;;;;;23.73;8.05;;;;;;;;;;5054362;28;20067;-66
2022/01/17 06:49:44;;;;;;;21.00;7.97;;;;;;;;;;5061579;28;20529;-67
2022/01/17 06:52:11;;;;;;;23.20;8.63;;;;;;;;;;5061748;28;20076;-67
2022/01/17 06:54:37;;;;;;;22.65;10.65;;;;;;;;;;5060109;28;20049;-67
2022/01/17 06:57:03;;;;;;;20.88;9.70;;;;;;;;;;5058701;28;20053;-67
2022/01/17 06:59:30;;;;;;;32.85;12.43;;;;;;;;;;5051139;28;20141;-67
2022/01/17 07:01:56;;;;;;;36.80;11.70;;;;;;;;;;5051053;28;20061;-67
2022/01/17 07:04:22;;;;;;;27.77;10.43;;;;;;;;;;5064108;28;20444;-67
2022/01/17 07:06:49;;;;;;;23.73;11.10;;;;;;;;;;5062924;28;20053;-67
2022/01/17 07:09:19;;;;;;;26.85;11.40;;;;;;;;;;5062210;28;20065;-67
2022/01/17 07:11:45;;;;;;;28.92;12.07;;;;;;;;;;5058967;28;20139;-66
2022/01/17 07:14:11;;;;;;;27.85;11.35;;;;;;;;;;5058098;28;20102;-67
2022/01/17 07:16:39;;;;;;;26.02;12.05;;;;;;;;;;5056573;28;20050;-67
2022/01/17 07:19:06;;;;;;;27.67;11.65;;;;;;;;;;5067551;28;20053;-67
2022/01/17 07:21:33;;;;;;;22.85;12.18;;;;;;;;;;5054371;28;20064;-66
2022/01/17 07:24:00;;;;;;;32.17;12.15;;;;;;;;;;5054636;28;20133;-67
2022/01/17 07:26:26;;;;;;;29.85;12.32;;;;;;;;;;5054987;28;20060;-67
2022/01/17 07:28:52;;;;;;;32.25;14.30;;;;;;;;;;5054663;28;20061;-67
2022/01/17 07:31:19;;;;;;;30.58;12.70;;;;;;;;;;5053788;28;20049;-67
2022/01/17 07:33:45;;;;;;;29.25;11.23;;;;;;;;;;5054930;28;20061;-67
2022/01/17 07:36:19;;;;;;;29.33;12.80;;;;;;;;;;5054471;28;20049;-67
2022/01/17 07:38:46;;;;;;;29.30;13.82;;;;;;;;;;5063601;28;20422;-67
2022/01/17 07:41:12;;;;;;;33.00;13.68;;;;;;;;;;5062739;28;20057;-66
2022/01/17 07:43:55;;;;;;;30.17;13.25;;;;;;;;;;5061847;28;20111;-67
2022/01/17 07:46:31;;;;;;;32.88;12.60;;;;;;;;;;5054714;28;20061;-66
2022/01/17 07:49:09;;;;;;;24.77;11.13;;;;;;;;;;5045302;28;20515;-66
2022/01/17 07:51:36;;;;;;;31.63;12.43;;;;;;;;;;5060917;28;20076;-66
2022/01/17 07:54:03;;;;;;;25.55;10.60;;;;;;;;;;5062593;28;20063;-66
2022/01/17 07:56:30;;;;;;;25.70;10.07;;;;;;;;;;5053974;28;20053;-66
2022/01/17 07:58:56;;;;;;;29.80;10.00;;;;;;;;;;5052884;28;20057;-66
2022/01/17 08:01:23;;;;;;;32.30;12.07;;;;;;;;;;5053969;28;20057;-66
2022/01/17 08:03:49;;;;;;;23.73;10.25;;;;;;;;;;5054479;28;20050;-66
2022/01/17 08:06:16;;;;;;;27.13;10.73;;;;;;;;;;5052707;28;20057;-66
2022/01/17 08:08:42;;;;;;;18.10;8.60;;;;;;;;;;5054247;28;20060;-66
2022/01/17 08:11:08;;;;;;;29.00;9.82;;;;;;;;;;5053968;28;20527;-67
2022/01/17 08:13:34;;;;;;;31.58;9.77;;;;;;;;;;5053352;28;20060;-67
2022/01/17 08:16:02;;;;;;;21.98;8.30;;;;;;;;;;5054265;28;20515;-67
2022/01/17 08:18:29;;;;;;;24.38;8.52;;;;;;;;;;5054066;28;20104;-68
2022/01/17 08:20:55;;;;;;;22.45;8.30;;;;;;;;;;5053627;28;20056;-67
2022/01/17 08:23:21;;;;;;;23.40;7.35;;;;;;;;;;5053911;28;20049;-68
2022/01/17 08:25:48;;;;;;;24.60;7.28;;;;;;;;;;5054087;28;20053;-67
2022/01/17 08:28:14;;;;;;;18.70;7.05;;;;;;;;;;5052758;28;20050;-66
2022/01/17 08:30:40;;;;;;;21.65;6.45;;;;;;;;;;5053835;28;20060;-66
2022/01/17 08:33:26;;;;;;;24.17;5.65;;;;;;;;;;5053805;28;20519;-66
2022/01/17 08:35:53;;;;;;;18.70;6.47;;;;;;;;;;5054234;28;20523;-66
2022/01/17 08:38:39;;;;;;;26.65;7.10;;;;;;;;;;5049351;28;20489;-66
2022/01/17 08:41:06;;;;;;;19.25;6.60;;;;;;;;;;5053850;28;20140;-66
2022/01/17 08:43:32;;;;;;;26.90;6.15;;;;;;;;;;5053821;28;20059;-66
2022/01/17 08:45:59;;;;;;;30.83;5.95;;;;;;;;;;5053340;28;20510;-66
2022/01/17 08:48:25;;;;;;;20.08;5.68;;;;;;;;;;5053654;28;20053;-66
2022/01/17 08:50:51;;;;;;;19.42;5.80;;;;;;;;;;5053407;28;20065;-65
2022/01/17 08:53:17;;;;;;;16.75;5.20;;;;;;;;;;5050307;28;20449;-65
2022/01/17 08:55:44;;;;;;;19.88;6.60;;;;;;;;;;5052964;28;20511;-66
2022/01/17 08:58:12;;;;;;;32.35;6.03;;;;;;;;;;5053548;28;20052;-66
2022/01/17 09:00:38;;;;;;;18.92;5.82;;;;;;;;;;5052438;28;20060;-67
2022/01/17 09:03:19;;;;;;;15.43;4.40;;;;;;;;;;5052069;28;20132;-66
2022/01/17 09:05:45;;;;;;;23.05;5.50;;;;;;;;;;5052672;28;20054;-66
2022/01/17 09:08:12;;;;;;;17.05;4.55;;;;;;;;;;5053463;28;20058;-66
2022/01/17 09:10:39;;;;;;;19.83;4.60;;;;;;;;;;5053539;28;20050;-66
2022/01/17 09:13:07;;;;;;;27.73;4.75;;;;;;;;;;5053529;28;20120;-66
2022/01/17 09:15:33;;;;;;;20.90;4.88;;;;;;;;;;5053295;28;20540;-66
2022/01/17 09:18:00;;;;;;;27.35;5.25;;;;;;;;;;5052849;28;20144;-66
2022/01/17 09:20:26;;;;;;;26.02;5.20;;;;;;;;;;5053208;28;20053;-67
2022/01/17 09:22:53;;;;;;;24.92;5.68;;;;;;;;;;5053037;28;20053;-66
2022/01/17 09:25:19;;;;;;;22.52;4.00;;;;;;;;;;5052281;28;20493;-66
2022/01/17 09:27:45;;;;;;;21.77;4.07;;;;;;;;;;5052147;28;20122;-65
2022/01/17 09:30:13;;;;;;;16.73;4.40;;;;;;;;;;5053036;28;20049;-67
2022/01/17 09:32:39;;;;;;;33.50;5.00;;;;;;;;;;5052909;28;20053;-66
2022/01/17 09:35:06;;;;;;;23.13;5.28;;;;;;;;;;5052889;28;20049;-66
2022/01/17 09:37:33;;;;;;;19.73;4.32;;;;;;;;;;5051550;28;20056;-67
2022/01/17 09:39:59;;;;;;;27.95;5.63;;;;;;;;;;5052905;28;20588;-67
2022/01/17 09:42:26;;;;;;;18.23;4.45;;;;;;;;;;5053044;28;20083;-67
2022/01/17 09:44:52;;;;;;;18.08;4.25;;;;;;;;;;5052869;28;20053;-67
2022/01/17 09:47:19;;;;;;;27.60;8.38;;;;;;;;;;5052747;28;20105;-66
2022/01/17 09:49:55;;;;;;;24.30;5.32;;;;;;;;;;5052751;28;20596;-66
2022/01/17 09:52:34;;;;;;;25.23;5.47;;;;;;;;;;5052146;28;20566;-67
2022/01/17 09:55:05;;;;;;;31.27;5.05;;;;;;;;;;5051787;28;20555;-67
2022/01/17 09:57:34;;;;;;;18.42;3.83;;;;;;;;;;5052302;28;20103;-67
2022/01/17 10:00:00;;;;;;;21.05;4.30;;;;;;;;;;5051038;28;20057;-67
2022/01/17 10:02:26;;;;;;;23.13;4.18;;;;;;;;;;5049623;28;20057;-67
2022/01/17 10:04:53;;;;;;;20.35;4.75;;;;;;;;;;5052513;28;20133;-67
2022/01/17 10:07:20;;;;;;;24.83;3.92;;;;;;;;;;5052436;28;20472;-66
2022/01/17 10:09:54;;;;;;;23.35;5.47;;;;;;;;;;5051179;28;20053;-66
2022/01/17 10:12:20;;;;;;;21.98;3.70;;;;;;;;;;5050007;28;20060;-67
2022/01/17 10:15:03;;;;;;;17.23;3.58;;;;;;;;;;5056561;28;20056;-67
2022/01/17 10:17:46;;;;;;;30.75;4.38;;;;;;;;;;5054366;28;20046;-65
2022/01/17 10:20:15;;;;;;;19.05;4.70;;;;;;;;;;5053171;28;20064;-66
2022/01/17 10:22:55;;;;;;;26.98;3.97;;;;;;;;;;5054648;28;20049;-67
2022/01/17 10:25:42;;;;;;;23.35;4.18;;;;;;;;;;5055604;28;20046;-66
2022/01/17 10:36:23;;;;;;;19.35;3.75;;;;;;;;;;5054875;28;20112;-67
2022/01/17 10:39:06;;;;;;;20.52;3.53;;;;;;;;;;5054933;28;20425;-67
2022/01/17 10:41:32;;;;;;;21.70;4.03;;;;;;;;;;5055102;28;20128;-66
2022/01/17 10:43:58;;;;;;;26.35;4.75;;;;;;;;;;5055013;28;20509;-66
2022/01/17 10:46:25;;;;;;;23.42;3.78;;;;;;;;;;5054451;28;20095;-66
2022/01/17 10:48:56;;;;;;;18.70;3.72;;;;;;;;;;5054769;28;20145;-67
2022/01/17 10:51:29;;;;;;;26.50;5.35;;;;;;;;;;5053918;28;20086;-67
2022/01/17 10:53:56;;;;;;;20.15;3.33;;;;;;;;;;5054643;28;20052;-66
2022/01/17 10:56:23;;;;;;;21.65;6.15;;;;;;;;;;5054142;28;20071;-66
2022/01/17 10:59:00;;;;;;;22.63;4.43;;;;;;;;;;5079961;28;20141;-68
2022/01/17 11:01:34;;;;;;;21.35;4.60;;;;;;;;;;5052657;28;20057;-67
2022/01/17 11:04:03;;;;;;;25.92;3.95;;;;;;;;;;5053840;28;20069;-67
2022/01/17 11:06:30;;;;;;;24.52;3.80;;;;;;;;;;5053005;28;20505;-67
2022/01/17 11:09:04;;;;;;;18.83;3.85;;;;;;;;;;5055065;28;20055;-67
2022/01/17 11:11:31;;;;;;;20.70;4.22;;;;;;;;;;5052633;28;20061;-66
2022/01/17 11:14:00;;;;;;;20.67;3.63;;;;;;;;;;5053692;28;20061;-67
2022/01/17 11:16:28;;;;;;;15.93;2.85;;;;;;;;;;5055556;28;20063;-66
2022/01/17 11:19:20;;;;;;;32.33;4.97;;;;;;;;;;5055378;28;20046;-66
2022/01/17 11:21:45;;;;;;;23.25;2.65;;;;;;;;;;5055240;28;20414;-65
2022/01/17 11:24:11;;;;;;;21.10;3.72;;;;;;;;;;5054568;28;20064;-66
2022/01/17 11:26:38;;;;;;;16.67;3.47;;;;;;;;;;5053080;28;20045;-66
2022/01/17 11:29:07;;;;;;;15.68;4.13;;;;;;;;;;5055195;28;20060;-66
2022/01/17 11:31:33;;;;;;;12.68;3.55;;;;;;;;;;5054649;28;20064;-66
2022/01/17 11:34:00;;;;;;;20.83;3.33;;;;;;;;;;5054348;28;20052;-67
2022/01/17 11:36:27;;;;;;;20.38;4.07;;;;;;;;;;5053550;28;20050;-67
2022/01/17 11:38:55;;;;;;;22.83;3.30;;;;;;;;;;5054375;28;20052;-67
2022/01/17 11:41:23;;;;;;;19.88;3.47;;;;;;;;;;5054156;28;20584;-66
2022/01/17 11:44:15;;;;;;;24.17;3.15;;;;;;;;;;5054579;28;20542;-66
2022/01/17 11:47:02;;;;;;;18.50;3.30;;;;;;;;;;5054748;28;20055;-69
2022/01/17 11:49:35;;;;;;;25.50;2.65;;;;;;;;;;5053419;28;20057;-68
2022/01/17 11:52:01;;;;;;;23.13;3.83;;;;;;;;;;5052743;28;20062;-66
2022/01/17 11:54:28;;;;;;;16.75;3.70;;;;;;;;;;5051926;28;20045;-66
2022/01/17 11:57:05;;;;;;;22.27;4.07;;;;;;;;;;5053833;28;20049;-66
2022/01/17 11:59:39;;;;;;;21.42;4.45;;;;;;;;;;5034470;28;20476;-66
2022/01/17 12:02:25;;;;;;;30.63;4.18;;;;;;;;;;5034025;28;20062;-66
2022/01/17 12:05:06;;;;;;;17.13;3.15;;;;;;;;;;5041082;28;20111;-66
2022/01/17 12:07:39;;;;;;;17.67;3.42;;;;;;;;;;5051717;28;20527;-66
2022/01/17 12:10:07;;;;;;;23.30;3.30;;;;;;;;;;5059125;28;20139;-66
2022/01/17 12:12:33;;;;;;;27.25;5.15;;;;;;;;;;5058066;28;20079;-66
2022/01/17 12:15:05;;;;;;;22.65;3.47;;;;;;;;;;5053813;28;20058;-68
2022/01/17 12:17:31;;;;;;;18.10;3.13;;;;;;;;;;5049524;28;20058;-67
2022/01/17 12:20:09;;;;;;;18.00;3.40;;;;;;;;;;5052355;28;20065;-67
2022/01/17 12:22:38;;;;;;;25.88;3.90;;;;;;;;;;5052319;28;20456;-66
2022/01/17 12:25:28;;;;;;;23.05;3.90;;;;;;;;;;5042653;28;20049;-66
2022/01/17 12:28:00;;;;;;;19.08;3.80;;;;;;;;;;5053011;28;20057;-65
2022/01/17 12:30:39;;;;;;;17.45;2.60;;;;;;;;;;5050396;28;20344;-67
2022/01/17 12:33:09;;;;;;;20.77;4.00;;;;;;;;;;5043160;28;20058;-67
2022/01/17 12:35:43;;;;;;;22.65;3.95;;;;;;;;;;5051459;28;20046;-67
2022/01/17 12:38:14;;;;;;;17.02;3.60;;;;;;;;;;5053257;28;20064;-67
2022/01/17 12:40:57;;;;;;;29.90;4.60;;;;;;;;;;5052483;28;20505;-67
2022/01/17 12:43:32;;;;;;;23.98;3.95;;;;;;;;;;5052510;28;20053;-66
2022/01/17 12:46:00;;;;;;;23.13;3.70;;;;;;;;;;5052260;28;20571;-66
2022/01/17 12:48:31;;;;;;;25.83;3.60;;;;;;;;;;5053620;28;20049;-67
2022/01/17 12:50:59;;;;;;;22.08;4.68;;;;;;;;;;5052169;28;20053;-68
2022/01/17 12:53:27;;;;;;;29.52;4.82;;;;;;;;;;5051434;28;20097;-67
2022/01/17 12:55:54;;;;;;;26.55;3.38;;;;;;;;;;5050621;28;20050;-66
2022/01/17 12:58:20;;;;;;;22.27;3.45;;;;;;;;;;5052859;28;20061;-66
2022/01/17 13:00:55;;;;;;;17.75;3.30;;;;;;;;;;5051702;28;20054;-67
2022/01/17 13:03:25;;;;;;;25.92;4.32;;;;;;;;;;5053030;28;20052;-66
2022/01/17 13:05:52;;;;;;;21.02;4.28;;;;;;;;;;5033533;28;20584;-66
2022/01/17 13:08:19;;;;;;;28.92;4.47;;;;;;;;;;5051417;28;20054;-66
2022/01/17 13:10:52;;;;;;;22.67;4.20;;;;;;;;;;5053360;28;20053;-68
2022/01/17 13:13:19;;;;;;;20.38;3.55;;;;;;;;;;5053289;28;20053;-66
2022/01/17 13:16:17;;;;;;;25.00;5.35;;;;;;;;;;5051779;28;20425;-65
2022/01/17 13:18:44;;;;;;;18.73;3.38;;;;;;;;;;5028965;28;20065;-67
2022/01/17 13:21:10;;;;;;;27.52;3.53;;;;;;;;;;5049348;28;20508;-67
2022/01/17 13:23:50;;;;;;;19.80;4.25;;;;;;;;;;5050250;28;20054;-66
2022/01/17 13:26:20;;;;;;;26.87;4.10;;;;;;;;;;5051819;28;20053;-66
2022/01/17 13:28:50;;;;;;;26.48;4.45;;;;;;;;;;5051772;28;20049;-66
2022/01/17 13:31:21;;;;;;;24.15;4.15;;;;;;;;;;5051862;28;20056;-66
2022/01/17 13:33:50;;;;;;;19.92;3.63;;;;;;;;;;5051391;28;20097;-66
2022/01/17 13:36:21;;;;;;;24.90;4.78;;;;;;;;;;5050904;28;20054;-66
2022/01/17 13:38:59;;;;;;;33.90;4.65;;;;;;;;;;5051176;28;20059;-66
2022/01/17 13:41:27;;;;;;;31.30;4.80;;;;;;;;;;5051775;28;20049;-66
2022/01/17 13:43:53;;;;;;;33.00;4.65;;;;;;;;;;5051394;28;20049;-66
2022/01/17 13:46:20;;;;;;;29.27;4.10;;;;;;;;;;5051505;28;20060;-66
2022/01/17 13:48:47;;;;;;;25.05;3.70;;;;;;;;;;5047073;28;20065;-66
2022/01/17 13:51:13;;;;;;;18.27;4.15;;;;;;;;;;5050002;28;20058;-66
2022/01/17 13:53:39;;;;;;;29.73;4.10;;;;;;;;;;5052350;28;20053;-66
2022/01/17 13:56:07;;;;;;;27.13;3.67;;;;;;;;;;5051208;28;20053;-65
2022/01/17 13:58:34;;;;;;;24.95;4.00;;;;;;;;;;5049851;28;20445;-65
2022/01/17 14:01:07;;;;;;;29.38;4.47;;;;;;;;;;5050098;28;20149;-66
2022/01/17 14:03:34;;;;;;;22.80;3.67;;;;;;;;;;5051546;28;20054;-67
2022/01/17 14:06:07;;;;;;;28.67;4.40;;;;;;;;;;5052030;28;20054;-65
2022/01/17 14:08:40;;;;;;;26.92;4.28;;;;;;;;;;5049056;28;20064;-66
2022/01/17 14:11:07;;;;;;;23.42;4.10;;;;;;;;;;5051179;28;20048;-66
2022/01/17 14:13:36;;;;;;;40.97;5.05;;;;;;;;;;5050306;28;20075;-66
2022/01/17 14:16:17;;;;;;;30.42;4.00;;;;;;;;;;5054084;28;20077;-66
2022/01/17 14:18:48;;;;;;;17.25;3.58;;;;;;;;;;5047635;28;20064;-66
2022/01/17 14:21:41;;;;;;;19.33;4.05;;;;;;;;;;5052904;28;20045;-65
2022/01/17 14:24:09;;;;;;;24.55;4.45;;;;;;;;;;5057091;28;20428;-65
2022/01/17 14:26:55;;;;;;;29.77;3.90;;;;;;;;;;5056109;28;20052;-65
2022/01/17 14:29:31;;;;;;;24.48;3.97;;;;;;;;;;5057094;28;20050;-65
2022/01/17 14:31:58;;;;;;;21.58;3.88;;;;;;;;;;5049859;28;20059;-65
2022/01/17 14:34:32;;;;;;;30.38;5.28;;;;;;;;;;5051962;28;20057;-65
2022/01/17 14:37:01;;;;;;;29.20;4.22;;;;;;;;;;5051269;28;20060;-65
2022/01/17 14:40:02;;;;;;;27.75;4.15;;;;;;;;;;5043938;28;20489;-65
2022/01/17 14:42:34;;;;;;;38.10;5.20;;;;;;;;;;5051428;28;20508;-65
2022/01/17 14:45:02;;;;;;;31.05;4.25;;;;;;;;;;5050576;28;20482;-65
2022/01/17 14:47:36;;;;;;;25.33;4.13;;;;;;;;;;5051403;28;20148;-65
2022/01/17 14:50:03;;;;;;;25.55;4.43;;;;;;;;;;5050966;28;20144;-66
2022/01/17 14:52:32;;;;;;;20.02;3.75;;;;;;;;;;5051053;28;20472;-65
2022/01/17 14:55:07;;;;;;;22.52;4.60;;;;;;;;;;5051208;28;20074;-65
2022/01/17 15:00:28;;;;;;;23.15;3.90;;;;;;;;;;5052405;28;43403;-65
2022/01/17 15:05:22;;;;;;;30.50;3.70;;;;;;;;;;5054831;28;20103;-66
2022/01/17 15:07:50;;;;;;;25.73;4.35;;;;;;;;;;5053177;28;20057;-66
2022/01/17 15:10:17;;;;;;;25.08;4.15;;;;;;;;;;5054795;28;20519;-66
2022/01/17 15:12:44;;;;;;;27.10;4.85;;;;;;;;;;5057613;28;20056;-66